Flight Track Log - Related Links

Times and Time Zones

All times are in EDT time to prevent confusion due to time zone crossing. See the N137TK flight status page for this flight to view local times or setup timezone preferences in your user account.

Time Position Orientation Groundspeed Altitude Reporting Facility
EDT Latitude Longitude Course Direction KTS MPH feet Rate Location/Type
Fri 04:58:56 PM 30.0842 -90.0308 357° North 153 176 1,800  Level Houston Center
Fri 04:59:22 PM 30.0972 -90.0147 47° Northeast 181 208 2,500 1,869 Climbing Houston Center
Fri 04:59:57 PM 30.0931 -89.9825 98° East 179 206 3,700 1,935 Climbing Houston Center
Fri 05:00:24 PM 30.0781 -89.9706 145° Southeast 177 204 4,500 1,800 Climbing Houston Center
Fri 05:01:27 PM 30.0358 -89.9406 148° Southeast 175 201 6,400 1,872 Climbing Houston Center
Fri 05:02:29 PM 29.9939 -89.9081 146° Southeast 181 208 8,400 1,935 Climbing Houston Center
Fri 05:03:31 PM 29.9497 -89.8728 145° Southeast 188 216 10,400 2,081 Climbing Houston Center
Fri 05:04:33 PM 29.9006 -89.8264 141° Southeast 190 219 12,700 1,839 Climbing Houston Center
Fri 05:05:35 PM 29.8653 -89.7806 132° Southeast 190 219 14,200 1,452 Climbing Houston Center
Fri 05:06:37 PM 29.8256 -89.7339 134° Southeast 200 230 15,700 1,452 Climbing Houston Center
Fri 05:07:39 PM 29.7881 -89.6872 133° Southeast 200 230 17,200 1,548 Climbing Houston Center
Fri 05:08:41 PM 29.7519 -89.6436 134° Southeast 190 219 18,900 1,392 Climbing Houston Center
Fri 05:09:44 PM 29.7072 -89.5911 134° Southeast 194 223 20,100 1,104 Climbing Houston Center
Fri 05:10:46 PM 29.6683 -89.5444 134° Southeast 201 231 21,200 1,065 Climbing Houston Center
Fri 05:11:48 PM 29.6286 -89.4972 134° Southeast 205 236 22,300 1,065 Climbing Houston Center
Fri 05:12:50 PM 29.5892 -89.4481 133° Southeast 209 241 23,400 871 Climbing Houston Center
Fri 05:13:52 PM 29.5469 -89.3978 134° Southeast 217 250 24,100 823 Climbing Houston Center
Fri 05:14:54 PM 29.5025 -89.3444 134° Southeast 228 262 25,100 968 Climbing Houston Center
Fri 05:15:56 PM 29.4511 -89.2831 134° Southeast 225 259 26,100 823 Climbing Houston Center
Fri 05:16:58 PM 29.4075 -89.2333 135° Southeast 223 257 26,800 432 Climbing Houston Center
Fri 05:18:01 PM 29.3619 -89.1797 134° Southeast 230 265 27,000 96 Climbing Houston Center
Fri 05:19:03 PM 29.3111 -89.1175 133° Southeast 260 299 27,000  Level Houston Center
Fri 05:20:05 PM 29.2578 -89.0542 134° Southeast 274 315 27,000  Level Houston Center
Fri 05:21:07 PM 29.1925 -88.9769 134° Southeast 281 323 27,000  Level Houston Center
Fri 05:22:09 PM 29.1369 -88.9125 135° Southeast 285 328 27,000  Level Houston Center
Fri 05:23:11 PM 29.0819 -88.8461 133° Southeast 287 330 27,000  Level Houston Center
Fri 05:24:13 PM 29.0256 -88.7800 134° Southeast 289 333 27,000  Level Houston Center
Fri 05:25:15 PM 28.9706 -88.7139 134° Southeast 288 331 27,000  Level Houston Center
Fri 05:26:17 PM 28.9336 -88.6239 115° Southeast 307 353 27,000  Level Houston Center
Fri 05:27:20 PM 28.8844 -88.5225 119° Southeast 304 350 27,000  Level Houston Center
Fri 05:28:22 PM 28.8436 -88.4386 119° Southeast 304 350 27,000  Level Houston Center
Fri 05:29:24 PM 28.8031 -88.3553 119° Southeast 301 346 27,000  Level Houston Center
Fri 05:30:26 PM 28.7625 -88.2731 119° Southeast 299 344 27,000  Level Houston Center
Fri 05:31:28 PM 28.7225 -88.1900 119° Southeast 300 345 27,000  Level Houston Center
Fri 05:32:30 PM 28.6733 -88.0908 119° Southeast 300 345 27,000  Level Houston Center
Fri 05:33:32 PM 28.6358 -88.0133 119° Southeast 300 345 27,000  Level Houston Center
Fri 05:34:35 PM 28.5950 -87.9311 119° Southeast 298 343 27,000  Level Houston Center
Fri 05:35:37 PM 28.5625 -87.8425 113° Southeast 303 349 27,000  Level Houston Center
Fri 05:36:39 PM 28.5239 -87.7367 113° Southeast 303 349 27,000  Level Houston Center
Fri 05:37:41 PM 28.4914 -87.6481 113° Southeast 303 349 27,000  Level Houston Center
Fri 05:38:43 PM 28.4583 -87.5603 113° Southeast 303 349 27,000  Level Houston Center
Fri 05:39:45 PM 28.4264 -87.4717 112° Southeast 303 349 27,000  Level Houston Center
Fri 05:40:47 PM 28.3936 -87.3844 113° Southeast 300 345 27,000  Level Houston Center
Fri 05:41:49 PM 28.3544 -87.2789 113° Southeast 301 346 27,000  Level Houston Center
Fri 05:42:52 PM 28.3225 -87.1928 113° Southeast 299 344 27,000  Level Houston Center
Fri 05:44:03 PM 28.2858 -87.0925 113° Southeast 291 335 27,000  Level Jacksonville Center
Fri 05:45:02 PM 28.2531 -87.0064 113° Southeast 298 343 27,000  Level Jacksonville Center
Fri 05:46:02 PM 28.2186 -86.9156 113° Southeast 298 343 27,000  Level Jacksonville Center
Fri 05:47:02 PM 28.1856 -86.8319 114° Southeast 292 336 27,000  Level Jacksonville Center
Fri 05:48:02 PM 28.1531 -86.7389 112° Southeast 299 344 27,000  Level Jacksonville Center
Fri 05:49:02 PM 28.1219 -86.6575 113° Southeast 292 336 27,000  Level Jacksonville Center
Fri 05:50:02 PM 28.0869 -86.5692 114° Southeast 298 343 27,000  Level Jacksonville Center
Fri 05:51:02 PM 28.0558 -86.4906 114° Southeast 292 336 27,000  Level Jacksonville Center
Fri 05:52:02 PM 28.0231 -86.3953 111° Southeast 297 342 27,000  Level Jacksonville Center
Fri 05:53:02 PM 27.9917 -86.3167 114° Southeast 297 342 27,000  Level Jacksonville Center
Fri 05:54:02 PM 27.9583 -86.2381 116° Southeast 292 336 27,000  Level Jacksonville Center
Fri 05:55:02 PM 27.9253 -86.1453 112° Southeast 293 337 27,000  Level Jacksonville Center
Fri 05:56:02 PM 27.8919 -86.0597 114° Southeast 298 343 27,000  Level Jacksonville Center
Fri 05:57:02 PM 27.8586 -85.9697 113° Southeast 304 350 27,000  Level Jacksonville Center
Fri 05:58:02 PM 27.8253 -85.8819 113° Southeast 296 341 27,000  Level Jacksonville Center
Fri 05:59:02 PM 27.7917 -85.8011 115° Southeast 296 341 27,000  Level Jacksonville Center
Fri 06:01:20 PM 27.7114 -85.6011 114° Southeast 304 350 27,000  Level Miami Center
Fri 06:02:20 PM 27.6772 -85.5097 113° Southeast 309 356 27,000  Level Miami Center
Fri 06:03:20 PM 27.6508 -85.4303 111° Southeast 303 349 27,000  Level Miami Center
Fri 06:04:20 PM 27.6081 -85.3431 119° Southeast 302 348 27,000  Level Miami Center
Fri 06:05:20 PM 27.5817 -85.2592 110° East 302 348 27,000  Level Miami Center
Fri 06:06:20 PM 27.5450 -85.1722 115° Southeast 297 342 27,000  Level Miami Center
Fri 06:07:20 PM 27.5125 -85.0881 114° Southeast 297 342 27,000  Level Miami Center
Fri 06:08:20 PM 27.4733 -85.0058 118° Southeast 297 342 27,000  Level Miami Center
Fri 06:09:20 PM 27.4319 -84.9258 120° Southeast 297 342 27,000  Level Miami Center
Fri 06:10:20 PM 27.3886 -84.8433 121° Southeast 302 348 27,000  Level Miami Center
Fri 06:11:20 PM 27.3511 -84.7661 119° Southeast 302 348 27,000  Level Miami Center
Fri 06:12:20 PM 27.3139 -84.6867 118° Southeast 297 342 27,000  Level Miami Center
Fri 06:13:20 PM 27.2661 -84.6064 124° Southeast 304 350 27,000  Level Miami Center
Fri 06:14:20 PM 27.2306 -84.5269 117° Southeast 304 350 27,000  Level Miami Center
Fri 06:15:20 PM 27.1911 -84.4475 119° Southeast 299 344 27,000  Level Miami Center
Fri 06:16:20 PM 27.1553 -84.3728 118° Southeast 292 336 27,000  Level Miami Center
Fri 06:17:20 PM 27.1133 -84.2956 121° Southeast 292 336 27,000  Level Miami Center
Fri 06:18:20 PM 27.0736 -84.2183 120° Southeast 285 328 27,000  Level Miami Center
Fri 06:19:20 PM 27.0336 -84.1414 120° Southeast 285 328 27,000  Level Miami Center
Fri 06:20:20 PM 26.9958 -84.0644 119° Southeast 285 328 27,000  Level Miami Center
Fri 06:21:20 PM 26.9558 -83.9853 120° Southeast 280 322 27,000  Level Miami Center
Fri 06:22:20 PM 26.9158 -83.9106 121° Southeast 287 330 27,000  Level Miami Center
Fri 06:23:20 PM 26.8736 -83.8336 122° Southeast 287 330 27,000  Level Miami Center
Fri 06:24:20 PM 26.8356 -83.7569 119° Southeast 285 328 27,000 -500 Level Miami Center
Fri 06:25:20 PM 26.7956 -83.6756 119° Southeast 285 328 26,000 -1,100 Descending Miami Center
Fri 06:26:20 PM 26.7517 -83.5894 120° Southeast 295 339 24,800 -1,200 Descending Miami Center
Fri 06:27:20 PM 26.7053 -83.5078 122° Southeast 307 353 23,600 -1,250 Descending Miami Center
Fri 06:28:20 PM 26.6633 -83.4217 119° Southeast 312 359 22,300 -1,200 Descending Miami Center
Fri 06:29:20 PM 26.6211 -83.3406 120° Southeast 312 359 21,200 -1,150 Descending Miami Center
Fri 06:30:20 PM 26.5769 -83.2569 121° Southeast 306 352 20,000 -1,200 Descending Miami Center
Fri 06:31:20 PM 26.5325 -83.1756 121° Southeast 298 343 18,800 -1,150 Descending Miami Center
Fri 06:32:20 PM 26.4939 -83.0994 120° Southeast 303 349 17,700 -1,150 Descending Miami Center
Fri 06:33:20 PM 26.4536 -83.0206 120° Southeast 303 349 16,500 -1,150 Descending Miami Center
Fri 06:34:20 PM 26.4128 -82.9444 121° Southeast 297 342 15,400 -1,100 Descending Miami Center
Fri 06:35:20 PM 26.3744 -82.8683 119° Southeast 292 336 14,300 -1,100 Descending Miami Center
Fri 06:36:20 PM 26.3336 -82.7922 121° Southeast 286 329 13,200 -1,100 Descending Miami Center
Fri 06:37:20 PM 26.2950 -82.7183 120° Southeast 286 329 12,100 -1,100 Descending Miami Center
Fri 06:38:20 PM 26.2542 -82.6400 120° Southeast 286 329 11,000 -1,100 Descending Miami Center
Fri 06:39:20 PM 26.2153 -82.5686 121° Southeast 281 323 9,900 -1,050 Descending Miami Center
Fri 06:40:20 PM 26.1978 -82.4800 102° East 276 318 8,900 -1,050 Descending Miami Center
Fri 06:41:20 PM 26.1928 -82.3942 94° East 276 318 7,800 -950 Descending Miami Center
Fri 06:42:20 PM 26.1875 -82.3106 94° East 281 323 7,000 -364 Descending Miami Center
Fri 06:43:32 PM 26.1803 -82.2247 95° East 264 304 7,000 -45 Level Miami Center
Fri 06:44:32 PM 26.1811 -82.1461 89° East 257 296 6,900 -50 Descending Miami Center
Fri 06:45:32 PM 26.2006 -82.0706 74° East 250 288 6,900 -600 Level Miami Center
Fri 06:46:32 PM 26.2219 -81.9950 72° East 241 277 5,700 -1,100 Descending Miami Center
Fri 06:47:32 PM 26.2389 -81.9311 74° East 224 258 4,700 -1,000 Descending Miami Center
Fri 06:49:00 PM 26.1794 -81.8242 79° East  Level Estimated
Fri 06:56:00 PM 26.1524 -81.7756 79° East  Level Estimated
Fri 06:57:00 PM 26.1524 -81.7756 79° East  Level Estimated
Fri 06:58:00 PM 26.1524 -81.7756 79° East  Level Estimated
Fri 06:59:00 PM 26.1524 -81.7756 79° East  Level Estimated
Fri 07:00:00 PM 26.1524 -81.7756 79° East  Level Estimated

Login

Don't have an account? Register now (free) for customized features, flight alerts, and more!